Madison, Georgia
Current Conditions -  °F | °C
As of 6:55 AM on Saturday 25 Oct 2014 (Local Time) from K3J7 Reporting Station
Haze Haze  
Wind Chill: 46°   Ceiling: Unl
Heat Index: 46°   Visibility: 5mi
Dew Point: 46°   Wind: 0mph
Humidity: 100%   Direction: NA
Pressure: 29.99"   Gusts: NA
Location:  33.6°N, 83.47°W
Report Text: K3J7 251055Z AUTO 00000KT 5SM BR CLR 08/08 A2999 RMK AO2
Loading
Personal Weather Stations






























Interactive Weather Map
Tropical Storm Tracking
New forecast layout! Learn more

10-Day Weather Forecast

Advertisements
Track Severe Weather on mobile